sensor_id;sensor_type;location;lat;lon;timestamp;temperature;humidity
3005;DHT22;1512;51.486;6.610;2022-08-24T00:01:14;21.70;99.90
3005;DHT22;1512;51.486;6.610;2022-08-24T00:05:23;21.60;99.90
3005;DHT22;1512;51.486;6.610;2022-08-24T00:09:32;21.60;99.90
3005;DHT22;1512;51.486;6.610;2022-08-24T00:13:42;21.60;99.90
3005;DHT22;1512;51.486;6.610;2022-08-24T00:17:51;21.60;99.90
3005;DHT22;1512;51.486;6.610;2022-08-24T00:21:59;21.60;99.90
3005;DHT22;1512;51.486;6.610;2022-08-24T00:26:08;21.60;99.90
3005;DHT22;1512;51.486;6.610;2022-08-24T00:30:36;21.50;99.90
3005;DHT22;1512;51.486;6.610;2022-08-24T00:34:45;21.40;99.90
3005;DHT22;1512;51.486;6.610;2022-08-24T00:38:55;21.40;99.90
3005;DHT22;1512;51.486;6.610;2022-08-24T00:43:07;21.30;99.90
3005;DHT22;1512;51.486;6.610;2022-08-24T00:47:21;21.20;99.90
3005;DHT22;1512;51.486;6.610;2022-08-24T00:51:44;21.20;99.90
3005;DHT22;1512;51.486;6.610;2022-08-24T00:55:51;21.20;99.90
3005;DHT22;1512;51.486;6.610;2022-08-24T01:00:05;21.10;99.90
3005;DHT22;1512;51.486;6.610;2022-08-24T01:04:15;21.10;99.90
3005;DHT22;1512;51.486;6.610;2022-08-24T01:08:23;21.10;99.90
3005;DHT22;1512;51.486;6.610;2022-08-24T01:12:34;21.10;99.90
3005;DHT22;1512;51.486;6.610;2022-08-24T01:16:43;21.10;99.90
3005;DHT22;1512;51.486;6.610;2022-08-24T01:21:21;21.00;99.90
3005;DHT22;1512;51.486;6.610;2022-08-24T01:25:32;21.00;99.90
3005;DHT22;1512;51.486;6.610;2022-08-24T01:29:44;21.00;99.90
3005;DHT22;1512;51.486;6.610;2022-08-24T01:33:54;20.90;99.90
3005;DHT22;1512;51.486;6.610;2022-08-24T01:38:06;20.80;99.90
3005;DHT22;1512;51.486;6.610;2022-08-24T01:42:34;20.80;99.90
3005;DHT22;1512;51.486;6.610;2022-08-24T01:46:51;20.80;99.90
3005;DHT22;1512;51.486;6.610;2022-08-24T01:51:01;20.80;99.90
3005;DHT22;1512;51.486;6.610;2022-08-24T01:55:12;20.80;99.90
3005;DHT22;1512;51.486;6.610;2022-08-24T01:59:23;20.70;99.90
3005;DHT22;1512;51.486;6.610;2022-08-24T02:03:31;20.70;99.90
3005;DHT22;1512;51.486;6.610;2022-08-24T02:07:41;20.70;99.90
3005;DHT22;1512;51.486;6.610;2022-08-24T02:11:49;20.60;99.90
3005;DHT22;1512;51.486;6.610;2022-08-24T02:15:58;20.50;99.90
3005;DHT22;1512;51.486;6.610;2022-08-24T02:20:08;20.50;99.90
3005;DHT22;1512;51.486;6.610;2022-08-24T02:24:16;20.50;99.90
3005;DHT22;1512;51.486;6.610;2022-08-24T02:28:25;20.40;99.90
3005;DHT22;1512;51.486;6.610;2022-08-24T02:32:35;20.40;99.90
3005;DHT22;1512;51.486;6.610;2022-08-24T02:36:44;20.40;99.90
3005;DHT22;1512;51.486;6.610;2022-08-24T02:40:53;20.40;99.90
3005;DHT22;1512;51.486;6.610;2022-08-24T02:45:04;20.40;99.90
3005;DHT22;1512;51.486;6.610;2022-08-24T02:49:12;20.20;99.90
3005;DHT22;1512;51.486;6.610;2022-08-24T02:53:22;20.20;99.90
3005;DHT22;1512;51.486;6.610;2022-08-24T02:57:31;20.20;99.90
3005;DHT22;1512;51.486;6.610;2022-08-24T03:01:39;20.10;99.90
3005;DHT22;1512;51.486;6.610;2022-08-24T03:05:48;20.10;99.90
3005;DHT22;1512;51.486;6.610;2022-08-24T03:09:59;20.10;99.90
3005;DHT22;1512;51.486;6.610;2022-08-24T03:14:07;20.10;99.90
3005;DHT22;1512;51.486;6.610;2022-08-24T03:18:16;20.10;99.90
3005;DHT22;1512;51.486;6.610;2022-08-24T03:22:27;20.10;99.90
3005;DHT22;1512;51.486;6.610;2022-08-24T03:26:36;20.00;99.90
3005;DHT22;1512;51.486;6.610;2022-08-24T03:30:47;20.00;99.90
3005;DHT22;1512;51.486;6.610;2022-08-24T03:34:56;20.00;99.90
3005;DHT22;1512;51.486;6.610;2022-08-24T03:39:06;20.00;99.90
3005;DHT22;1512;51.486;6.610;2022-08-24T03:43:15;20.10;99.90
3005;DHT22;1512;51.486;6.610;2022-08-24T03:47:42;20.00;99.90
3005;DHT22;1512;51.486;6.610;2022-08-24T03:51:51;19.90;99.90
3005;DHT22;1512;51.486;6.610;2022-08-24T03:56:19;19.90;99.90
3005;DHT22;1512;51.486;6.610;2022-08-24T04:00:28;19.90;99.90
3005;DHT22;1512;51.486;6.610;2022-08-24T04:04:56;19.90;99.90
3005;DHT22;1512;51.486;6.610;2022-08-24T04:09:24;19.90;99.90
3005;DHT22;1512;51.486;6.610;2022-08-24T04:13:34;19.80;99.90
3005;DHT22;1512;51.486;6.610;2022-08-24T04:17:43;19.80;99.90
3005;DHT22;1512;51.486;6.610;2022-08-24T04:21:52;19.80;99.90
3005;DHT22;1512;51.486;6.610;2022-08-24T04:26:04;19.70;99.90
3005;DHT22;1512;51.486;6.610;2022-08-24T04:30:13;19.80;99.90
3005;DHT22;1512;51.486;6.610;2022-08-24T04:34:22;19.80;99.90
3005;DHT22;1512;51.486;6.610;2022-08-24T04:38:30;19.80;99.90
3005;DHT22;1512;51.486;6.610;2022-08-24T04:42:39;19.80;99.90
3005;DHT22;1512;51.486;6.610;2022-08-24T04:46:47;19.80;99.90
3005;DHT22;1512;51.486;6.610;2022-08-24T04:51:02;19.70;99.90
3005;DHT22;1512;51.486;6.610;2022-08-24T04:55:11;19.70;99.90
3005;DHT22;1512;51.486;6.610;2022-08-24T04:59:20;19.70;99.90
3005;DHT22;1512;51.486;6.610;2022-08-24T05:03:28;19.80;99.90
3005;DHT22;1512;51.486;6.610;2022-08-24T05:07:37;19.80;99.90
3005;DHT22;1512;51.486;6.610;2022-08-24T05:11:45;19.70;99.90
3005;DHT22;1512;51.486;6.610;2022-08-24T05:15:56;19.60;99.90
3005;DHT22;1512;51.486;6.610;2022-08-24T05:20:05;19.60;99.90
3005;DHT22;1512;51.486;6.610;2022-08-24T05:24:15;19.60;99.90
3005;DHT22;1512;51.486;6.610;2022-08-24T05:28:24;19.70;99.90
3005;DHT22;1512;51.486;6.610;2022-08-24T05:32:34;19.70;99.90
3005;DHT22;1512;51.486;6.610;2022-08-24T05:36:43;19.70;99.90
3005;DHT22;1512;51.486;6.610;2022-08-24T05:40:52;19.70;99.90
3005;DHT22;1512;51.486;6.610;2022-08-24T05:45:00;19.80;99.90
3005;DHT22;1512;51.486;6.610;2022-08-24T05:49:10;19.70;99.90
3005;DHT22;1512;51.486;6.610;2022-08-24T05:53:18;19.80;99.90
3005;DHT22;1512;51.486;6.610;2022-08-24T05:57:32;19.80;99.90
3005;DHT22;1512;51.486;6.610;2022-08-24T06:01:41;19.80;99.90
3005;DHT22;1512;51.486;6.610;2022-08-24T06:05:51;20.00;99.90
3005;DHT22;1512;51.486;6.610;2022-08-24T06:10:02;20.10;99.90
3005;DHT22;1512;51.486;6.610;2022-08-24T06:14:15;20.10;99.90
3005;DHT22;1512;51.486;6.610;2022-08-24T06:18:24;20.20;99.90
3005;DHT22;1512;51.486;6.610;2022-08-24T06:22:33;20.30;99.90
3005;DHT22;1512;51.486;6.610;2022-08-24T06:26:43;20.40;99.90
3005;DHT22;1512;51.486;6.610;2022-08-24T06:31:09;20.60;99.90
3005;DHT22;1512;51.486;6.610;2022-08-24T06:35:18;20.60;99.90
3005;DHT22;1512;51.486;6.610;2022-08-24T06:39:27;20.70;99.90
3005;DHT22;1512;51.486;6.610;2022-08-24T06:43:36;20.70;99.90
3005;DHT22;1512;51.486;6.610;2022-08-24T06:47:45;20.80;99.90
3005;DHT22;1512;51.486;6.610;2022-08-24T06:51:53;20.80;99.90
3005;DHT22;1512;51.486;6.610;2022-08-24T06:56:03;20.90;99.90
3005;DHT22;1512;51.486;6.610;2022-08-24T07:00:12;21.00;99.90
3005;DHT22;1512;51.486;6.610;2022-08-24T07:04:23;21.10;99.90
3005;DHT22;1512;51.486;6.610;2022-08-24T07:08:35;21.20;99.90
3005;DHT22;1512;51.486;6.610;2022-08-24T07:12:44;21.30;99.90
3005;DHT22;1512;51.486;6.610;2022-08-24T07:16:53;21.40;99.90
3005;DHT22;1512;51.486;6.610;2022-08-24T07:21:04;21.60;99.90
3005;DHT22;1512;51.486;6.610;2022-08-24T07:25:13;21.70;99.90
3005;DHT22;1512;51.486;6.610;2022-08-24T07:29:22;21.80;99.90
3005;DHT22;1512;51.486;6.610;2022-08-24T07:33:33;21.90;99.90
3005;DHT22;1512;51.486;6.610;2022-08-24T07:37:42;22.00;99.90
3005;DHT22;1512;51.486;6.610;2022-08-24T07:42:10;22.20;99.90
3005;DHT22;1512;51.486;6.610;2022-08-24T07:46:21;22.30;99.90
3005;DHT22;1512;51.486;6.610;2022-08-24T07:50:30;22.50;99.90
3005;DHT22;1512;51.486;6.610;2022-08-24T07:54:39;22.70;99.90
3005;DHT22;1512;51.486;6.610;2022-08-24T07:58:48;22.80;99.90
3005;DHT22;1512;51.486;6.610;2022-08-24T08:02:58;23.00;99.90
3005;DHT22;1512;51.486;6.610;2022-08-24T08:07:09;23.10;99.90
3005;DHT22;1512;51.486;6.610;2022-08-24T08:11:20;23.30;99.90
3005;DHT22;1512;51.486;6.610;2022-08-24T08:15:28;23.40;99.90
3005;DHT22;1512;51.486;6.610;2022-08-24T08:19:37;23.60;99.90
3005;DHT22;1512;51.486;6.610;2022-08-24T08:23:46;23.80;99.90
3005;DHT22;1512;51.486;6.610;2022-08-24T08:28:12;24.00;99.90
3005;DHT22;1512;51.486;6.610;2022-08-24T08:32:23;24.20;99.90
3005;DHT22;1512;51.486;6.610;2022-08-24T08:36:32;24.40;99.90
3005;DHT22;1512;51.486;6.610;2022-08-24T08:40:54;24.60;99.90
3005;DHT22;1512;51.486;6.610;2022-08-24T08:45:14;24.70;99.90
3005;DHT22;1512;51.486;6.610;2022-08-24T08:54:25;25.10;99.90
3005;DHT22;1512;51.486;6.610;2022-08-24T09:07:47;25.60;99.90
3005;DHT22;1512;51.486;6.610;2022-08-24T09:12:14;25.90;99.90
3005;DHT22;1512;51.486;6.610;2022-08-24T09:21:07;26.40;99.90
3005;DHT22;1512;51.486;6.610;2022-08-24T09:34:35;27.00;99.90
3005;DHT22;1512;51.486;6.610;2022-08-24T09:39:06;27.10;99.90
3005;DHT22;1512;51.486;6.610;2022-08-24T09:48:03;27.20;98.40
3005;DHT22;1512;51.486;6.610;2022-08-24T09:52:22;27.20;97.10
3005;DHT22;1512;51.486;6.610;2022-08-24T09:56:54;27.40;97.20
3005;DHT22;1512;51.486;6.610;2022-08-24T10:01:27;27.70;94.40
3005;DHT22;1512;51.486;6.610;2022-08-24T10:05:51;28.00;97.30
3005;DHT22;1512;51.486;6.610;2022-08-24T10:10:11;28.10;93.80
3005;DHT22;1512;51.486;6.610;2022-08-24T10:14:52;28.20;93.00
3005;DHT22;1512;51.486;6.610;2022-08-24T10:24:05;28.50;85.90
3005;DHT22;1512;51.486;6.610;2022-08-24T10:37:58;29.10;87.80
3005;DHT22;1512;51.486;6.610;2022-08-24T10:50:50;29.40;78.00
3005;DHT22;1512;51.486;6.610;2022-08-24T10:55:24;29.30;85.10
3005;DHT22;1512;51.486;6.610;2022-08-24T11:03:59;29.60;74.20
3005;DHT22;1512;51.486;6.610;2022-08-24T11:08:08;29.90;70.70
3005;DHT22;1512;51.486;6.610;2022-08-24T11:16:49;29.90;73.30
3005;DHT22;1512;51.486;6.610;2022-08-24T11:20:59;29.80;73.10
3005;DHT22;1512;51.486;6.610;2022-08-24T11:25:21;29.80;76.60
3005;DHT22;1512;51.486;6.610;2022-08-24T11:34:14;30.10;70.90
3005;DHT22;1512;51.486;6.610;2022-08-24T11:38:27;30.30;67.60
3005;DHT22;1512;51.486;6.610;2022-08-24T11:55:49;30.90;63.60
3005;DHT22;1512;51.486;6.610;2022-08-24T12:00:12;31.20;66.80
3005;DHT22;1512;51.486;6.610;2022-08-24T12:04:48;31.40;58.90
3005;DHT22;1512;51.486;6.610;2022-08-24T12:17:32;31.90;61.90
3005;DHT22;1512;51.486;6.610;2022-08-24T12:21:42;32.10;59.40
3005;DHT22;1512;51.486;6.610;2022-08-24T12:26:35;32.20;58.60
3005;DHT22;1512;51.486;6.610;2022-08-24T12:30:40;32.10;53.40
3005;DHT22;1512;51.486;6.610;2022-08-24T12:39:18;32.10;51.70
3005;DHT22;1512;51.486;6.610;2022-08-24T12:43:36;32.00;51.50
3005;DHT22;1512;51.486;6.610;2022-08-24T12:47:51;32.00;54.90
3005;DHT22;1512;51.486;6.610;2022-08-24T13:01:03;32.50;54.50
3005;DHT22;1512;51.486;6.610;2022-08-24T13:05:16;32.60;53.90
3005;DHT22;1512;51.486;6.610;2022-08-24T13:09:34;32.70;55.30
3005;DHT22;1512;51.486;6.610;2022-08-24T13:14:04;32.80;54.50
3005;DHT22;1512;51.486;6.610;2022-08-24T13:26:39;32.70;53.40
3005;DHT22;1512;51.486;6.610;2022-08-24T13:35:35;32.60;51.00
3005;DHT22;1512;51.486;6.610;2022-08-24T13:44:05;32.20;50.60
3005;DHT22;1512;51.486;6.610;2022-08-24T13:48:26;32.20;53.30
3005;DHT22;1512;51.486;6.610;2022-08-24T13:57:24;31.80;53.00
3005;DHT22;1512;51.486;6.610;2022-08-24T14:01:40;32.00;54.90
3005;DHT22;1512;51.486;6.610;2022-08-24T14:06:01;32.20;50.20
3005;DHT22;1512;51.486;6.610;2022-08-24T14:10:12;32.40;50.90
3005;DHT22;1512;51.486;6.610;2022-08-24T14:23:45;32.50;49.30
3005;DHT22;1512;51.486;6.610;2022-08-24T14:45:52;32.00;52.10
3005;DHT22;1512;51.486;6.610;2022-08-24T14:50:19;32.20;53.90
3005;DHT22;1512;51.486;6.610;2022-08-24T14:54:36;32.40;49.80
3005;DHT22;1512;51.486;6.610;2022-08-24T14:59:08;32.60;49.20
3005;DHT22;1512;51.486;6.610;2022-08-24T15:03:31;32.70;48.60
3005;DHT22;1512;51.486;6.610;2022-08-24T15:07:36;32.90;50.20
3005;DHT22;1512;51.486;6.610;2022-08-24T15:11:47;32.90;50.50
3005;DHT22;1512;51.486;6.610;2022-08-24T15:16:10;32.90;51.40
3005;DHT22;1512;51.486;6.610;2022-08-24T15:29:19;32.80;50.40
3005;DHT22;1512;51.486;6.610;2022-08-24T15:33:56;32.80;50.20
3005;DHT22;1512;51.486;6.610;2022-08-24T15:38:21;32.70;50.80
3005;DHT22;1512;51.486;6.610;2022-08-24T15:42:31;32.60;49.60
3005;DHT22;1512;51.486;6.610;2022-08-24T15:46:44;32.40;48.60
3005;DHT22;1512;51.486;6.610;2022-08-24T15:55:45;32.20;50.70
3005;DHT22;1512;51.486;6.610;2022-08-24T16:00:04;31.90;50.80
3005;DHT22;1512;51.486;6.610;2022-08-24T16:04:13;31.70;51.50
3005;DHT22;1512;51.486;6.610;2022-08-24T16:08:23;31.50;52.90
3005;DHT22;1512;51.486;6.610;2022-08-24T16:12:31;31.30;53.20
3005;DHT22;1512;51.486;6.610;2022-08-24T16:16:42;31.30;53.80
3005;DHT22;1512;51.486;6.610;2022-08-24T16:20:54;31.30;52.40
3005;DHT22;1512;51.486;6.610;2022-08-24T16:25:10;31.30;51.60
3005;DHT22;1512;51.486;6.610;2022-08-24T16:33:48;31.30;51.10
3005;DHT22;1512;51.486;6.610;2022-08-24T16:37:59;31.40;53.20
3005;DHT22;1512;51.486;6.610;2022-08-24T16:42:22;31.40;52.70
3005;DHT22;1512;51.486;6.610;2022-08-24T16:46:31;31.40;51.70
3005;DHT22;1512;51.486;6.610;2022-08-24T16:50:40;31.30;52.30
3005;DHT22;1512;51.486;6.610;2022-08-24T16:54:49;31.20;53.00
3005;DHT22;1512;51.486;6.610;2022-08-24T16:58:58;31.10;52.50
3005;DHT22;1512;51.486;6.610;2022-08-24T17:03:07;31.00;52.00
3005;DHT22;1512;51.486;6.610;2022-08-24T17:07:20;30.90;53.10
3005;DHT22;1512;51.486;6.610;2022-08-24T17:11:29;30.80;54.00
3005;DHT22;1512;51.486;6.610;2022-08-24T17:15:37;30.70;53.10
3005;DHT22;1512;51.486;6.610;2022-08-24T17:19:48;30.60;53.30
3005;DHT22;1512;51.486;6.610;2022-08-24T17:23:57;30.60;53.20
3005;DHT22;1512;51.486;6.610;2022-08-24T17:28:06;30.50;53.20
3005;DHT22;1512;51.486;6.610;2022-08-24T17:32:15;30.50;51.40
3005;DHT22;1512;51.486;6.610;2022-08-24T17:36:25;30.50;52.10
3005;DHT22;1512;51.486;6.610;2022-08-24T17:40:36;30.50;52.50
3005;DHT22;1512;51.486;6.610;2022-08-24T17:44:44;30.40;53.90
3005;DHT22;1512;51.486;6.610;2022-08-24T17:48:54;30.30;53.70
3005;DHT22;1512;51.486;6.610;2022-08-24T17:53:03;30.20;54.10
3005;DHT22;1512;51.486;6.610;2022-08-24T17:57:12;30.10;55.10
3005;DHT22;1512;51.486;6.610;2022-08-24T18:01:22;30.00;55.40
3005;DHT22;1512;51.486;6.610;2022-08-24T18:05:32;29.90;55.20
3005;DHT22;1512;51.486;6.610;2022-08-24T18:09:46;29.80;55.40
3005;DHT22;1512;51.486;6.610;2022-08-24T18:13:55;29.70;56.00
3005;DHT22;1512;51.486;6.610;2022-08-24T18:18:06;29.60;56.90
3005;DHT22;1512;51.486;6.610;2022-08-24T18:22:16;29.40;56.60
3005;DHT22;1512;51.486;6.610;2022-08-24T18:26:26;29.30;57.30
3005;DHT22;1512;51.486;6.610;2022-08-24T18:30:36;29.20;57.30
3005;DHT22;1512;51.486;6.610;2022-08-24T18:34:47;29.10;57.70
3005;DHT22;1512;51.486;6.610;2022-08-24T18:38:56;29.00;58.50
3005;DHT22;1512;51.486;6.610;2022-08-24T18:43:05;28.80;58.80
3005;DHT22;1512;51.486;6.610;2022-08-24T18:47:14;28.70;59.80
3005;DHT22;1512;51.486;6.610;2022-08-24T18:51:24;28.50;60.60
3005;DHT22;1512;51.486;6.610;2022-08-24T18:55:34;28.40;61.20
3005;DHT22;1512;51.486;6.610;2022-08-24T18:59:45;28.30;62.30
3005;DHT22;1512;51.486;6.610;2022-08-24T19:03:54;28.20;64.30
3005;DHT22;1512;51.486;6.610;2022-08-24T19:08:03;28.00;65.90
3005;DHT22;1512;51.486;6.610;2022-08-24T19:12:13;27.80;65.70
3005;DHT22;1512;51.486;6.610;2022-08-24T19:16:22;27.70;65.70
3005;DHT22;1512;51.486;6.610;2022-08-24T19:20:30;27.60;66.60
3005;DHT22;1512;51.486;6.610;2022-08-24T19:24:39;27.50;65.50
3005;DHT22;1512;51.486;6.610;2022-08-24T19:28:48;27.40;66.00
3005;DHT22;1512;51.486;6.610;2022-08-24T19:33:00;27.30;66.30
3005;DHT22;1512;51.486;6.610;2022-08-24T19:37:09;27.30;66.70
3005;DHT22;1512;51.486;6.610;2022-08-24T19:41:18;27.20;66.90
3005;DHT22;1512;51.486;6.610;2022-08-24T19:45:28;27.20;66.40
3005;DHT22;1512;51.486;6.610;2022-08-24T19:49:55;27.10;66.00
3005;DHT22;1512;51.486;6.610;2022-08-24T19:54:05;27.20;66.70
3005;DHT22;1512;51.486;6.610;2022-08-24T19:58:44;27.10;67.00
3005;DHT22;1512;51.486;6.610;2022-08-24T20:02:51;27.00;67.50
3005;DHT22;1512;51.486;6.610;2022-08-24T20:07:00;27.00;67.30
3005;DHT22;1512;51.486;6.610;2022-08-24T20:11:09;26.90;67.50
3005;DHT22;1512;51.486;6.610;2022-08-24T20:15:19;26.80;68.30
3005;DHT22;1512;51.486;6.610;2022-08-24T20:19:28;26.70;69.10
3005;DHT22;1512;51.486;6.610;2022-08-24T20:23:38;26.60;69.00
3005;DHT22;1512;51.486;6.610;2022-08-24T20:27:47;26.60;69.00
3005;DHT22;1512;51.486;6.610;2022-08-24T20:31:58;26.50;69.70
3005;DHT22;1512;51.486;6.610;2022-08-24T20:36:17;26.40;69.70
3005;DHT22;1512;51.486;6.610;2022-08-24T20:40:22;26.40;70.30
3005;DHT22;1512;51.486;6.610;2022-08-24T20:44:32;26.40;70.70
3005;DHT22;1512;51.486;6.610;2022-08-24T20:48:41;26.30;70.80
3005;DHT22;1512;51.486;6.610;2022-08-24T20:52:51;26.20;71.40
3005;DHT22;1512;51.486;6.610;2022-08-24T20:57:02;26.10;71.60
3005;DHT22;1512;51.486;6.610;2022-08-24T21:01:11;26.10;71.90
3005;DHT22;1512;51.486;6.610;2022-08-24T21:05:20;26.00;71.80
3005;DHT22;1512;51.486;6.610;2022-08-24T21:09:29;25.90;71.90
3005;DHT22;1512;51.486;6.610;2022-08-24T21:13:37;25.90;72.00
3005;DHT22;1512;51.486;6.610;2022-08-24T21:17:46;25.90;72.20
3005;DHT22;1512;51.486;6.610;2022-08-24T21:21:55;25.80;72.00
3005;DHT22;1512;51.486;6.610;2022-08-24T21:26:07;25.80;71.70
3005;DHT22;1512;51.486;6.610;2022-08-24T21:30:18;25.80;71.70
3005;DHT22;1512;51.486;6.610;2022-08-24T21:34:27;25.80;72.00
3005;DHT22;1512;51.486;6.610;2022-08-24T21:38:49;25.70;72.20
3005;DHT22;1512;51.486;6.610;2022-08-24T21:43:00;25.60;73.20
3005;DHT22;1512;51.486;6.610;2022-08-24T21:47:10;25.60;72.90
3005;DHT22;1512;51.486;6.610;2022-08-24T21:51:20;25.50;73.10
3005;DHT22;1512;51.486;6.610;2022-08-24T21:55:29;25.40;72.40
3005;DHT22;1512;51.486;6.610;2022-08-24T21:59:38;25.30;73.30
3005;DHT22;1512;51.486;6.610;2022-08-24T22:03:46;25.30;74.60
3005;DHT22;1512;51.486;6.610;2022-08-24T22:07:56;25.20;75.20
3005;DHT22;1512;51.486;6.610;2022-08-24T22:12:08;25.20;74.50
3005;DHT22;1512;51.486;6.610;2022-08-24T22:16:16;25.10;74.60
3005;DHT22;1512;51.486;6.610;2022-08-24T22:20:25;25.00;76.10
3005;DHT22;1512;51.486;6.610;2022-08-24T22:24:35;24.80;75.60
3005;DHT22;1512;51.486;6.610;2022-08-24T22:28:44;24.70;76.30
3005;DHT22;1512;51.486;6.610;2022-08-24T22:32:52;24.60;78.10
3005;DHT22;1512;51.486;6.610;2022-08-24T22:37:02;24.50;76.70
3005;DHT22;1512;51.486;6.610;2022-08-24T22:41:12;24.40;77.10
3005;DHT22;1512;51.486;6.610;2022-08-24T22:45:20;24.40;79.80
3005;DHT22;1512;51.486;6.610;2022-08-24T22:49:48;24.30;78.90
3005;DHT22;1512;51.486;6.610;2022-08-24T22:53:57;24.20;80.00
3005;DHT22;1512;51.486;6.610;2022-08-24T22:58:06;24.20;79.60
3005;DHT22;1512;51.486;6.610;2022-08-24T23:02:34;24.20;80.60
3005;DHT22;1512;51.486;6.610;2022-08-24T23:06:43;24.20;80.80
3005;DHT22;1512;51.486;6.610;2022-08-24T23:10:51;24.20;80.10
3005;DHT22;1512;51.486;6.610;2022-08-24T23:15:03;24.20;80.90
3005;DHT22;1512;51.486;6.610;2022-08-24T23:19:12;24.20;81.00
3005;DHT22;1512;51.486;6.610;2022-08-24T23:23:39;24.20;82.00
3005;DHT22;1512;51.486;6.610;2022-08-24T23:27:49;24.20;83.20
3005;DHT22;1512;51.486;6.610;2022-08-24T23:31:58;24.20;83.20
3005;DHT22;1512;51.486;6.610;2022-08-24T23:36:08;24.20;83.60
3005;DHT22;1512;51.486;6.610;2022-08-24T23:40:18;24.20;83.30
3005;DHT22;1512;51.486;6.610;2022-08-24T23:44:28;24.10;83.60
3005;DHT22;1512;51.486;6.610;2022-08-24T23:48:38;24.10;84.40
3005;DHT22;1512;51.486;6.610;2022-08-24T23:52:48;24.00;85.60
3005;DHT22;1512;51.486;6.610;2022-08-24T23:56:56;24.00;85.90
